Time;durP1;ratioP1;P1;durP2;ratioP2;P2;SDS_P1;SDS_P2;PMS_P1;PMS_P2;Temp;Humidity;BMP_temperature;BMP_pressure;BME280_temperature;BME280_humidity;BME280_pressure;Samples;Min_cycle;Max_cycle;Signal;HPM_P1;HPM_P2
2022/01/18 00:00:14;;;;;;;;;;;5.80;99.90;;;;;;5063415;28;20022;-50
2022/01/18 00:02:40;;;;;;;;;;;5.70;99.90;;;;;;5052200;28;20382;-51
2022/01/18 00:05:07;;;;;;;;;;;5.60;99.90;;;;;;5053347;28;19920;-51
2022/01/18 00:07:33;;;;;;;;;;;5.60;99.90;;;;;;5048032;28;20081;-52
2022/01/18 00:09:59;;;;;;;;;;;5.50;99.90;;;;;;5049693;28;20426;-52
2022/01/18 00:15:18;;;;;;;;;;;5.50;99.90;;;;;;5055986;28;19920;-50
2022/01/18 00:17:52;;;;;;;;;;;5.40;99.90;;;;;;5049601;28;20271;-49
2022/01/18 00:20:25;;;;;;;;;;;5.40;99.90;;;;;;5064963;28;20499;-48
2022/01/18 00:22:50;;;;;;;;;;;5.30;99.90;;;;;;5069538;28;19920;-51
2022/01/18 00:25:17;;;;;;;;;;;5.30;99.90;;;;;;5021602;28;19923;-49
2022/01/18 00:27:43;;;;;;;;;;;5.30;99.90;;;;;;5051880;28;19925;-50
2022/01/18 00:30:33;;;;;;;;;;;5.20;99.90;;;;;;5015851;28;19916;-50
2022/01/18 00:33:12;;;;;;;;;;;5.20;99.90;;;;;;5047860;28;19951;-51
2022/01/18 00:35:40;;;;;;;;;;;5.20;99.90;;;;;;5065420;28;20425;-51
2022/01/18 00:38:16;;;;;;;;;;;5.20;99.90;;;;;;5070360;28;19920;-48
2022/01/18 00:40:42;;;;;;;;;;;5.10;99.90;;;;;;5046648;28;20290;-51
2022/01/18 00:43:07;;;;;;;;;;;4.90;99.90;;;;;;5067867;28;19924;-53
2022/01/18 00:45:33;;;;;;;;;;;5.10;99.90;;;;;;5083378;28;19920;-50
2022/01/18 00:48:01;;;;;;;;;;;5.10;99.90;;;;;;5063513;28;19924;-52
2022/01/18 00:50:30;;;;;;;;;;;5.10;99.90;;;;;;5084937;28;20252;-52
2022/01/18 00:52:57;;;;;;;;;;;5.00;99.90;;;;;;5067170;28;19932;-51
2022/01/18 00:55:25;;;;;;;;;;;5.10;99.90;;;;;;5066461;28;20170;-51
2022/01/18 00:57:51;;;;;;;;;;;5.10;99.90;;;;;;5062240;28;19972;-49
2022/01/18 01:00:17;;;;;;;;;;;5.00;99.90;;;;;;5046834;28;19959;-50
2022/01/18 01:02:42;;;;;;;;;;;5.00;99.90;;;;;;5081771;28;19920;-49
2022/01/18 01:05:08;;;;;;;;;;;5.00;99.90;;;;;;5047639;28;20425;-52
2022/01/18 01:07:37;;;;;;;;;;;4.90;99.90;;;;;;5049225;28;19931;-53
2022/01/18 01:10:03;;;;;;;;;;;4.90;99.90;;;;;;5052792;28;19981;-53
2022/01/18 01:12:29;;;;;;;;;;;4.90;99.90;;;;;;5062492;28;20392;-51
2022/01/18 01:15:02;;;;;;;;;;;4.90;99.90;;;;;;5067333;28;19923;-53
2022/01/18 01:44:19;;;;;;;;;;;4.80;99.90;;;;;;5069403;28;20027;-47
2022/01/18 01:46:45;;;;;;;;;;;4.80;99.90;;;;;;5051537;28;20025;-52
2022/01/18 01:49:13;;;;;;;;;;;4.80;99.90;;;;;;5069776;28;19982;-49
2022/01/18 01:51:40;;;;;;;;;;;4.80;99.90;;;;;;5045562;28;19920;-49
2022/01/18 01:54:07;;;;;;;;;;;4.90;99.90;;;;;;5085679;28;19943;-49
2022/01/18 01:56:33;;;;;;;;;;;4.90;99.90;;;;;;5056579;28;20474;-47
2022/01/18 01:58:59;;;;;;;;;;;5.00;99.90;;;;;;5064745;28;19916;-48
2022/01/18 02:01:28;;;;;;;;;;;5.00;99.90;;;;;;5049895;28;19932;-49
2022/01/18 02:03:55;;;;;;;;;;;5.00;99.90;;;;;;5039628;28;19995;-48
2022/01/18 02:06:22;;;;;;;;;;;5.00;99.90;;;;;;5088633;28;19939;-48
2022/01/18 02:08:48;;;;;;;;;;;5.10;99.90;;;;;;5035370;28;19916;-49
2022/01/18 02:11:14;;;;;;;;;;;5.00;99.90;;;;;;5050479;28;19931;-49
2022/01/18 02:13:40;;;;;;;;;;;5.10;99.90;;;;;;5088693;28;19920;-50
2022/01/18 02:24:03;;;;;;;;;;;5.10;99.90;;;;;;5063035;28;19917;-48
2022/01/18 02:26:29;;;;;;;;;;;5.10;99.90;;;;;;5065743;28;19944;-50
2022/01/18 02:28:57;;;;;;;;;;;5.20;99.90;;;;;;5089476;28;20275;-50
2022/01/18 02:31:23;;;;;;;;;;;5.20;99.90;;;;;;5084247;28;20247;-49
2022/01/18 02:33:49;;;;;;;;;;;5.30;99.90;;;;;;5056032;28;19927;-50
2022/01/18 02:36:15;;;;;;;;;;;5.30;99.90;;;;;;5067476;28;19923;-49
2022/01/18 02:38:40;;;;;;;;;;;5.30;99.90;;;;;;5082365;28;20388;-51
2022/01/18 02:41:07;;;;;;;;;;;5.40;99.90;;;;;;5066700;28;19920;-49
2022/01/18 02:43:50;;;;;;;;;;;5.40;99.90;;;;;;5033146;28;20381;-50
2022/01/18 02:46:16;;;;;;;;;;;5.40;99.90;;;;;;5067602;28;20015;-49
2022/01/18 02:48:42;;;;;;;;;;;5.50;99.90;;;;;;5081855;28;20278;-47
2022/01/18 02:51:09;;;;;;;;;;;5.50;99.90;;;;;;5047575;28;19926;-51
2022/01/18 02:53:52;;;;;;;;;;;5.50;99.90;;;;;;5050945;28;19916;-48
2022/01/18 02:56:17;;;;;;;;;;;5.60;99.90;;;;;;5068166;28;19967;-52
2022/01/18 02:58:43;;;;;;;;;;;5.60;99.90;;;;;;5065740;28;20058;-49
2022/01/18 03:03:53;;;;;;;;;;;5.60;99.90;;;;;;5065580;28;20891;-49
2022/01/18 03:06:19;;;;;;;;;;;5.60;99.90;;;;;;5053820;28;20084;-51
2022/01/18 03:08:45;;;;;;;;;;;5.60;99.90;;;;;;5049157;28;19923;-50
2022/01/18 03:11:10;;;;;;;;;;;5.70;99.90;;;;;;5065129;28;20009;-49
2022/01/18 03:13:36;;;;;;;;;;;5.70;99.90;;;;;;5066035;28;19961;-50
2022/01/18 03:16:02;;;;;;;;;;;5.70;99.90;;;;;;5066885;28;19923;-51
2022/01/18 03:18:28;;;;;;;;;;;5.70;99.90;;;;;;5029961;28;19984;-51
2022/01/18 03:20:55;;;;;;;;;;;5.70;99.90;;;;;;5030172;28;19920;-51
2022/01/18 03:23:22;;;;;;;;;;;5.70;99.90;;;;;;5047144;28;19921;-51
2022/01/18 03:25:54;;;;;;;;;;;5.80;99.90;;;;;;5065385;28;19960;-52
2022/01/18 03:28:21;;;;;;;;;;;5.70;99.90;;;;;;5050183;28;19926;-51
2022/01/18 03:30:49;;;;;;;;;;;5.70;99.90;;;;;;5047025;28;19920;-50
2022/01/18 03:33:16;;;;;;;;;;;5.80;99.90;;;;;;5051517;28;19916;-49
2022/01/18 03:35:43;;;;;;;;;;;5.80;99.90;;;;;;5065633;28;19932;-50
2022/01/18 03:38:10;;;;;;;;;;;5.80;99.90;;;;;;5041895;28;19963;-49
2022/01/18 03:40:35;;;;;;;;;;;5.90;99.90;;;;;;5059559;28;20024;-49
2022/01/18 03:43:02;;;;;;;;;;;5.80;99.90;;;;;;5061923;28;20003;-51
2022/01/18 03:45:31;;;;;;;;;;;5.90;99.90;;;;;;5069047;28;19930;-49
2022/01/18 03:48:01;;;;;;;;;;;5.90;99.90;;;;;;5054314;28;19928;-49
2022/01/18 03:50:26;;;;;;;;;;;6.00;99.90;;;;;;5050414;28;19917;-49
2022/01/18 03:52:52;;;;;;;;;;;6.00;99.90;;;;;;5051814;28;19962;-49
2022/01/18 03:55:19;;;;;;;;;;;6.00;99.90;;;;;;5051614;28;19926;-51
2022/01/18 03:57:45;;;;;;;;;;;6.00;99.90;;;;;;5070427;28;19916;-51
2022/01/18 04:00:14;;;;;;;;;;;6.00;99.90;;;;;;5073303;28;20358;-50
2022/01/18 04:02:40;;;;;;;;;;;6.00;99.90;;;;;;5068052;28;20030;-48
2022/01/18 04:05:05;;;;;;;;;;;6.00;99.90;;;;;;5062956;28;20007;-51
2022/01/18 04:07:32;;;;;;;;;;;5.90;99.90;;;;;;5069066;28;19960;-53
2022/01/18 04:09:58;;;;;;;;;;;5.90;99.90;;;;;;5068011;28;19932;-52
2022/01/18 04:12:24;;;;;;;;;;;5.90;99.90;;;;;;5068773;28;19923;-51
2022/01/18 04:14:49;;;;;;;;;;;6.00;99.90;;;;;;5068510;28;19999;-49
2022/01/18 04:28:14;;;;;;;;;;;5.90;99.90;;;;;;5049429;28;19926;-48
2022/01/18 04:30:39;;;;;;;;;;;5.90;99.90;;;;;;5067539;28;19927;-49
2022/01/18 04:33:05;;;;;;;;;;;5.90;99.90;;;;;;5069031;28;20303;-48
2022/01/18 04:35:31;;;;;;;;;;;5.90;99.90;;;;;;5085297;28;19931;-51
2022/01/18 04:37:57;;;;;;;;;;;5.90;99.90;;;;;;5068983;28;19924;-49
2022/01/18 04:40:28;;;;;;;;;;;5.90;99.90;;;;;;5067056;28;19923;-52
2022/01/18 04:50:50;;;;;;;;;;;5.90;99.90;;;;;;5067489;28;19942;-49
2022/01/18 04:53:16;;;;;;;;;;;5.90;99.90;;;;;;5049102;28;19968;-49
2022/01/18 04:55:42;;;;;;;;;;;5.90;99.90;;;;;;5050810;28;19916;-53
2022/01/18 04:58:08;;;;;;;;;;;5.90;99.90;;;;;;5083480;28;19939;-49
2022/01/18 05:00:34;;;;;;;;;;;5.90;99.90;;;;;;5048238;28;19917;-49
2022/01/18 05:03:00;;;;;;;;;;;5.90;99.90;;;;;;5048155;28;20422;-49
2022/01/18 05:05:31;;;;;;;;;;;5.90;99.90;;;;;;5062765;28;20008;-50
2022/01/18 05:07:59;;;;;;;;;;;5.90;99.90;;;;;;5053419;28;20006;-50
2022/01/18 05:10:28;;;;;;;;;;;5.90;99.90;;;;;;5049037;28;19962;-48
2022/01/18 05:12:56;;;;;;;;;;;5.80;99.90;;;;;;5068190;28;19924;-48
2022/01/18 05:23:21;;;;;;;;;;;5.80;99.90;;;;;;5047857;28;19916;-50
2022/01/18 05:25:47;;;;;;;;;;;5.80;99.90;;;;;;5081874;28;20402;-49
2022/01/18 05:28:13;;;;;;;;;;;5.90;99.90;;;;;;5030100;28;19928;-49
2022/01/18 05:30:39;;;;;;;;;;;5.90;99.90;;;;;;5051128;28;19943;-51
2022/01/18 05:33:06;;;;;;;;;;;5.90;99.90;;;;;;5047175;28;19924;-51
2022/01/18 05:35:32;;;;;;;;;;;6.30;99.90;;;;;;5047125;28;20017;-51
2022/01/18 05:37:58;;;;;;;;;;;5.90;99.90;;;;;;5048403;28;20352;-53
2022/01/18 05:40:24;;;;;;;;;;;5.90;99.90;;;;;;5046167;28;19916;-52
2022/01/18 05:42:50;;;;;;;;;;;5.80;99.90;;;;;;5066490;28;20007;-49
2022/01/18 05:45:16;;;;;;;;;;;5.90;99.90;;;;;;5066251;28;19920;-49
2022/01/18 05:47:42;;;;;;;;;;;5.90;99.90;;;;;;5066433;28;19955;-51
2022/01/18 05:50:08;;;;;;;;;;;5.90;99.90;;;;;;5035216;28;19974;-52
2022/01/18 05:52:34;;;;;;;;;;;5.80;99.90;;;;;;5049262;28;20391;-52
2022/01/18 05:55:00;;;;;;;;;;;5.80;99.90;;;;;;5032598;28;19955;-50
2022/01/18 05:57:26;;;;;;;;;;;5.90;99.90;;;;;;5064049;28;19993;-52
2022/01/18 05:59:54;;;;;;;;;;;5.80;99.90;;;;;;5069353;28;19958;-50
2022/01/18 06:02:37;;;;;;;;;;;5.90;99.90;;;;;;5067264;28;20003;-50
2022/01/18 06:07:47;;;;;;;;;;;5.90;99.90;;;;;;5067154;28;19935;-50
2022/01/18 06:10:13;;;;;;;;;;;5.80;99.90;;;;;;5065499;28;19917;-49
2022/01/18 06:12:41;;;;;;;;;;;5.90;99.90;;;;;;5068313;28;20220;-52
2022/01/18 06:15:07;;;;;;;;;;;5.90;99.90;;;;;;5066364;28;19923;-53
2022/01/18 06:17:33;;;;;;;;;;;5.90;99.90;;;;;;5048571;28;19985;-50
2022/01/18 06:19:59;;;;;;;;;;;5.90;99.90;;;;;;5054245;28;19924;-53
2022/01/18 06:22:25;;;;;;;;;;;5.90;99.90;;;;;;5032990;28;19956;-51
2022/01/18 06:24:51;;;;;;;;;;;5.90;99.90;;;;;;5077912;28;20281;-52
2022/01/18 06:27:16;;;;;;;;;;;5.90;99.90;;;;;;5029686;28;19974;-53
2022/01/18 06:29:42;;;;;;;;;;;5.90;99.90;;;;;;5049063;28;20278;-48
2022/01/18 06:32:08;;;;;;;;;;;5.90;99.90;;;;;;5077668;28;20197;-49
2022/01/18 06:34:34;;;;;;;;;;;5.90;99.90;;;;;;5068679;28;19955;-51
2022/01/18 06:37:01;;;;;;;;;;;5.90;99.90;;;;;;5048288;28;19917;-52
2022/01/18 06:39:27;;;;;;;;;;;5.90;99.90;;;;;;5032054;28;19916;-53
2022/01/18 06:41:53;;;;;;;;;;;5.90;99.90;;;;;;5052215;28;19973;-50
2022/01/18 06:44:19;;;;;;;;;;;5.90;99.90;;;;;;5067585;28;20007;-51
2022/01/18 06:46:45;;;;;;;;;;;5.90;99.90;;;;;;5066445;28;19924;-53
2022/01/18 06:49:10;;;;;;;;;;;6.00;99.90;;;;;;5048835;28;19978;-51
2022/01/18 06:51:36;;;;;;;;;;;5.90;99.90;;;;;;5051116;28;19961;-49
2022/01/18 06:54:02;;;;;;;;;;;5.90;99.90;;;;;;5049552;28;19943;-53
2022/01/18 06:56:28;;;;;;;;;;;5.90;99.90;;;;;;5053186;28;19916;-49
2022/01/18 06:58:54;;;;;;;;;;;5.90;99.90;;;;;;5048930;28;19924;-51
2022/01/18 07:01:20;;;;;;;;;;;5.90;99.90;;;;;;5051639;28;19916;-51
2022/01/18 07:03:48;;;;;;;;;;;5.90;99.90;;;;;;5053481;28;19936;-52
2022/01/18 07:06:17;;;;;;;;;;;5.90;99.90;;;;;;5062565;28;19946;-53
2022/01/18 07:08:43;;;;;;;;;;;6.00;99.90;;;;;;5065273;28;19916;-51
2022/01/18 07:11:09;;;;;;;;;;;6.00;99.90;;;;;;5048210;28;19927;-53
2022/01/18 07:13:35;;;;;;;;;;;6.00;99.90;;;;;;5050210;28;19927;-50
2022/01/18 07:16:00;;;;;;;;;;;6.00;99.90;;;;;;5033250;28;20184;-50
2022/01/18 07:18:27;;;;;;;;;;;5.90;99.90;;;;;;5059878;28;19932;-52
2022/01/18 07:20:52;;;;;;;;;;;5.90;99.90;;;;;;5071162;28;19931;-52
2022/01/18 07:23:18;;;;;;;;;;;6.00;99.90;;;;;;5070516;28;19920;-50
2022/01/18 07:25:47;;;;;;;;;;;5.90;99.90;;;;;;5054945;28;20256;-52
2022/01/18 07:28:13;;;;;;;;;;;5.90;99.90;;;;;;5070714;28;20021;-50
2022/01/18 07:30:39;;;;;;;;;;;5.90;99.90;;;;;;5056304;28;20385;-52
2022/01/18 07:33:07;;;;;;;;;;;5.90;99.90;;;;;;5054038;28;19924;-48
2022/01/18 07:35:34;;;;;;;;;;;5.90;99.90;;;;;;5068576;28;20431;-49
2022/01/18 07:38:01;;;;;;;;;;;5.90;99.90;;;;;;5050702;28;19998;-52
2022/01/18 07:40:28;;;;;;;;;;;5.90;99.90;;;;;;5071658;28;19921;-51
2022/01/18 07:42:54;;;;;;;;;;;5.80;99.90;;;;;;5071897;28;19993;-50
2022/01/18 07:45:23;;;;;;;;;;;5.80;99.90;;;;;;5050337;28;19966;-51
2022/01/18 07:47:49;;;;;;;;;;;5.90;99.90;;;;;;5067036;28;19994;-53
2022/01/18 07:50:15;;;;;;;;;;;5.90;99.90;;;;;;5032300;28;19935;-49
2022/01/18 07:52:41;;;;;;;;;;;5.80;99.90;;;;;;5055219;28;20422;-47
2022/01/18 07:55:07;;;;;;;;;;;5.90;99.90;;;;;;5069890;28;20008;-51
2022/01/18 07:57:33;;;;;;;;;;;5.90;99.90;;;;;;5047029;28;19920;-51
2022/01/18 07:59:59;;;;;;;;;;;5.80;99.90;;;;;;5051709;28;19916;-50
2022/01/18 08:02:25;;;;;;;;;;;5.80;99.90;;;;;;5048178;28;19926;-52
2022/01/18 08:04:51;;;;;;;;;;;5.80;99.90;;;;;;5054173;28;19927;-49
2022/01/18 08:07:16;;;;;;;;;;;5.80;99.90;;;;;;5067854;28;19931;-51
2022/01/18 08:09:42;;;;;;;;;;;5.80;99.90;;;;;;5051304;28;20539;-52
2022/01/18 08:12:08;;;;;;;;;;;5.80;99.90;;;;;;5052064;28;19959;-49
2022/01/18 08:14:35;;;;;;;;;;;5.70;99.90;;;;;;5069069;28;19919;-50
2022/01/18 08:17:04;;;;;;;;;;;5.70;99.90;;;;;;5068493;28;19988;-51
2022/01/18 08:19:32;;;;;;;;;;;5.80;99.90;;;;;;5069212;28;20042;-50
2022/01/18 08:21:58;;;;;;;;;;;5.70;99.90;;;;;;5071137;28;19916;-52
2022/01/18 08:24:25;;;;;;;;;;;5.80;99.90;;;;;;5083167;28;19941;-51
2022/01/18 08:26:51;;;;;;;;;;;5.80;99.90;;;;;;5069055;28;19924;-51
2022/01/18 08:29:17;;;;;;;;;;;5.80;99.90;;;;;;5070220;28;20290;-50
2022/01/18 08:31:43;;;;;;;;;;;5.90;99.90;;;;;;5049817;28;20065;-50
2022/01/18 08:34:09;;;;;;;;;;;5.90;99.90;;;;;;5051150;28;19990;-52
2022/01/18 08:36:35;;;;;;;;;;;5.90;99.90;;;;;;5056388;28;19952;-50
2022/01/18 08:39:02;;;;;;;;;;;6.00;99.90;;;;;;5050237;28;19925;-50
2022/01/18 08:41:27;;;;;;;;;;;6.00;99.90;;;;;;5054922;28;19924;-52
2022/01/18 08:43:53;;;;;;;;;;;6.00;99.90;;;;;;5053067;28;20282;-49
2022/01/18 08:46:20;;;;;;;;;;;6.00;99.90;;;;;;5066114;28;19924;-52
2022/01/18 08:48:55;;;;;;;;;;;6.10;99.90;;;;;;5065569;28;19920;-52
2022/01/18 08:51:21;;;;;;;;;;;6.10;99.90;;;;;;5068474;28;20066;-51
2022/01/18 08:53:50;;;;;;;;;;;6.10;99.90;;;;;;5053340;28;20294;-52
2022/01/18 08:56:20;;;;;;;;;;;6.10;99.90;;;;;;5050538;28;19963;-51
2022/01/18 08:58:46;;;;;;;;;;;6.20;99.90;;;;;;5065804;28;19956;-51
2022/01/18 09:01:12;;;;;;;;;;;6.20;99.90;;;;;;5066024;28;20354;-50
2022/01/18 09:03:38;;;;;;;;;;;6.30;99.90;;;;;;5057307;28;19923;-53
2022/01/18 09:06:06;;;;;;;;;;;6.30;99.90;;;;;;5067311;28;19916;-52
2022/01/18 09:08:32;;;;;;;;;;;6.30;99.90;;;;;;5052407;28;19924;-52
2022/01/18 09:10:58;;;;;;;;;;;6.40;99.90;;;;;;5066992;28;19924;-54
2022/01/18 09:13:23;;;;;;;;;;;6.40;99.90;;;;;;5041890;28;19962;-52
2022/01/18 09:15:50;;;;;;;;;;;6.50;99.90;;;;;;5034267;28;19916;-52
2022/01/18 09:18:16;;;;;;;;;;;6.50;99.90;;;;;;5036357;28;19926;-53
2022/01/18 09:20:43;;;;;;;;;;;6.50;99.90;;;;;;5066669;28;19916;-54
2022/01/18 09:23:09;;;;;;;;;;;6.60;99.90;;;;;;5052537;28;20405;-53
2022/01/18 09:25:36;;;;;;;;;;;6.60;99.90;;;;;;5051663;28;19997;-53
2022/01/18 09:28:02;;;;;;;;;;;6.60;99.90;;;;;;5047689;28;19963;-51
2022/01/18 09:30:29;;;;;;;;;;;6.60;99.90;;;;;;5051434;28;19971;-52
2022/01/18 09:32:56;;;;;;;;;;;6.60;99.90;;;;;;5032799;28;19916;-53
2022/01/18 09:35:23;;;;;;;;;;;6.70;99.90;;;;;;5036735;28;20195;-53
2022/01/18 09:37:49;;;;;;;;;;;6.70;99.90;;;;;;5039977;28;19964;-53
2022/01/18 09:40:18;;;;;;;;;;;6.80;99.90;;;;;;5066758;28;19920;-54
2022/01/18 09:42:50;;;;;;;;;;;6.80;99.90;;;;;;5065552;28;19958;-52
2022/01/18 09:45:18;;;;;;;;;;;6.80;99.90;;;;;;5052791;28;20414;-53
2022/01/18 09:47:45;;;;;;;;;;;6.90;99.90;;;;;;5036854;28;19924;-54
2022/01/18 09:50:13;;;;;;;;;;;6.90;99.90;;;;;;5049165;28;19943;-52
2022/01/18 09:52:38;;;;;;;;;;;7.00;99.90;;;;;;5049198;28;19920;-54
2022/01/18 09:55:05;;;;;;;;;;;7.00;99.90;;;;;;5058520;28;19923;-52
2022/01/18 09:57:31;;;;;;;;;;;7.00;99.90;;;;;;5049994;28;20393;-52
2022/01/18 09:59:57;;;;;;;;;;;7.10;99.90;;;;;;5038035;28;19916;-53
2022/01/18 10:02:23;;;;;;;;;;;7.10;99.90;;;;;;5068335;28;19999;-53
2022/01/18 10:04:53;;;;;;;;;;;7.20;99.90;;;;;;5068793;28;19939;-49
2022/01/18 10:07:30;;;;;;;;;;;7.20;99.90;;;;;;5065304;28;19931;-54
2022/01/18 10:10:00;;;;;;;;;;;7.20;99.90;;;;;;5033704;28;19920;-52
2022/01/18 10:12:26;;;;;;;;;;;7.30;99.90;;;;;;5068445;28;19986;-52
2022/01/18 10:14:53;;;;;;;;;;;7.30;99.90;;;;;;5068077;28;19971;-53
2022/01/18 10:17:28;;;;;;;;;;;7.30;99.90;;;;;;5052833;28;20255;-53
2022/01/18 10:19:54;;;;;;;;;;;7.30;99.90;;;;;;5034003;28;19950;-51
2022/01/18 10:22:27;;;;;;;;;;;7.40;99.90;;;;;;5066874;28;19920;-53
2022/01/18 10:24:53;;;;;;;;;;;7.40;99.90;;;;;;5052608;28;19924;-53
2022/01/18 10:27:19;;;;;;;;;;;7.50;99.90;;;;;;5052054;28;20389;-51
2022/01/18 10:29:49;;;;;;;;;;;7.50;99.90;;;;;;5067788;28;19916;-53
2022/01/18 10:37:19;;;;;;;;;;;7.60;99.90;;;;;;5048885;28;19967;-51
2022/01/18 10:39:49;;;;;;;;;;;7.70;99.90;;;;;;5066787;28;19924;-52
2022/01/18 10:42:19;;;;;;;;;;;7.60;99.90;;;;;;5082569;28;19962;-54
2022/01/18 10:44:48;;;;;;;;;;;7.70;99.90;;;;;;5046595;28;20327;-51
2022/01/18 10:47:17;;;;;;;;;;;7.60;99.90;;;;;;5044421;28;20427;-53
2022/01/18 10:49:47;;;;;;;;;;;7.60;99.90;;;;;;5049656;28;19924;-52
2022/01/18 10:52:14;;;;;;;;;;;7.50;99.90;;;;;;5079013;28;19924;-52
2022/01/18 10:54:54;;;;;;;;;;;7.50;99.90;;;;;;5050422;28;19928;-54
2022/01/18 10:57:26;;;;;;;;;;;7.50;99.90;;;;;;5066294;28;20003;-54
2022/01/18 11:00:07;;;;;;;;;;;7.50;99.90;;;;;;5052297;28;19927;-48
2022/01/18 11:02:42;;;;;;;;;;;7.50;99.90;;;;;;5070552;28;19961;-52
2022/01/18 11:05:34;;;;;;;;;;;7.50;99.90;;;;;;5067524;28;19936;-48
2022/01/18 11:08:05;;;;;;;;;;;7.60;99.90;;;;;;5034754;28;19928;-51
2022/01/18 11:10:36;;;;;;;;;;;7.70;99.90;;;;;;5053024;28;19920;-50
2022/01/18 11:15:31;;;;;;;;;;;7.60;99.90;;;;;;5054066;28;19928;-54
2022/01/18 11:17:59;;;;;;;;;;;7.60;99.90;;;;;;5049541;28;19920;-49
2022/01/18 11:20:26;;;;;;;;;;;7.60;99.90;;;;;;5083005;28;19974;-51
2022/01/18 11:22:52;;;;;;;;;;;7.60;99.90;;;;;;5051162;28;20354;-51
2022/01/18 11:25:18;;;;;;;;;;;7.60;99.90;;;;;;5052667;28;19931;-51
2022/01/18 11:27:48;;;;;;;;;;;7.60;99.90;;;;;;5066646;28;20324;-51
2022/01/18 11:30:26;;;;;;;;;;;7.60;99.90;;;;;;5049670;28;20309;-48
2022/01/18 11:32:53;;;;;;;;;;;7.60;99.90;;;;;;5034432;28;19920;-53
2022/01/18 11:35:21;;;;;;;;;;;7.60;99.90;;;;;;5067604;28;19928;-52
2022/01/18 11:38:00;;;;;;;;;;;7.50;99.90;;;;;;5052065;28;20279;-49
2022/01/18 11:40:40;;;;;;;;;;;7.60;99.90;;;;;;5049335;28;20269;-49
2022/01/18 11:43:08;;;;;;;;;;;7.60;99.90;;;;;;5050169;28;19946;-51
2022/01/18 11:45:35;;;;;;;;;;;7.60;99.90;;;;;;5050016;28;19924;-49
2022/01/18 11:48:11;;;;;;;;;;;7.70;99.90;;;;;;5067729;28;19925;-51
2022/01/18 11:50:40;;;;;;;;;;;7.60;99.90;;;;;;5083541;28;19975;-50
2022/01/18 11:53:17;;;;;;;;;;;7.60;99.90;;;;;;5068064;28;19978;-50
2022/01/18 11:55:45;;;;;;;;;;;7.60;99.90;;;;;;5034880;28;19966;-49
2022/01/18 11:58:12;;;;;;;;;;;7.60;99.90;;;;;;5031803;28;20058;-49
2022/01/18 12:00:56;;;;;;;;;;;7.60;99.90;;;;;;5068502;28;19920;-49
2022/01/18 12:03:23;;;;;;;;;;;7.60;99.90;;;;;;5031975;28;20673;-52
2022/01/18 12:05:49;;;;;;;;;;;7.60;99.90;;;;;;5049420;28;19933;-50
2022/01/18 12:08:47;;;;;;;;;;;7.50;99.90;;;;;;5067149;28;20344;-48
2022/01/18 12:11:19;;;;;;;;;;;7.60;99.90;;;;;;5022380;28;19931;-48
2022/01/18 12:13:45;;;;;;;;;;;7.50;99.90;;;;;;5069971;28;19924;-48
2022/01/18 12:16:21;;;;;;;;;;;7.50;99.90;;;;;;5048842;28;19920;-51
2022/01/18 12:18:51;;;;;;;;;;;7.50;99.90;;;;;;5049836;28;19920;-49
2022/01/18 12:21:20;;;;;;;;;;;7.50;99.90;;;;;;5066272;28;19932;-51
2022/01/18 12:23:46;;;;;;;;;;;7.50;99.90;;;;;;5053433;28;19920;-50
2022/01/18 12:26:31;;;;;;;;;;;7.50;99.90;;;;;;5049461;28;19916;-50
2022/01/18 12:34:34;;;;;;;;;;;7.40;99.90;;;;;;5049301;28;19920;-50
2022/01/18 12:37:06;;;;;;;;;;;7.40;99.90;;;;;;5052407;28;19920;-47
2022/01/18 12:39:51;;;;;;;;;;;7.40;99.90;;;;;;5034337;28;19959;-51
2022/01/18 12:45:08;;;;;;;;;;;7.50;99.90;;;;;;5050171;28;19928;-50
2022/01/18 12:47:47;;;;;;;;;;;7.50;99.90;;;;;;5066378;28;19931;-51
2022/01/18 12:50:13;;;;;;;;;;;7.50;99.90;;;;;;5049868;28;19997;-50
2022/01/18 12:52:53;;;;;;;;;;;7.40;99.90;;;;;;5071015;28;20367;-52
2022/01/18 12:55:31;;;;;;;;;;;7.40;99.90;;;;;;5031086;28;19928;-49
2022/01/18 12:57:58;;;;;;;;;;;7.40;99.90;;;;;;5065398;28;19925;-52
2022/01/18 13:00:23;;;;;;;;;;;7.40;99.90;;;;;;5068783;28;19930;-52
2022/01/18 13:02:49;;;;;;;;;;;7.40;99.90;;;;;;5050672;28;19978;-49
2022/01/18 13:05:15;;;;;;;;;;;7.40;99.90;;;;;;5052690;28;19924;-51
2022/01/18 13:07:51;;;;;;;;;;;7.40;99.90;;;;;;5034234;28;20332;-51
2022/01/18 13:10:16;;;;;;;;;;;7.40;99.90;;;;;;5069349;28;19924;-48
2022/01/18 13:12:44;;;;;;;;;;;7.40;99.90;;;;;;5065426;28;20327;-47
2022/01/18 13:15:10;;;;;;;;;;;7.40;99.90;;;;;;5050930;28;20027;-47
2022/01/18 13:23:46;;;;;;;;;;;7.30;99.90;;;;;;5069814;28;19966;-49
2022/01/18 13:26:12;;;;;;;;;;;7.30;99.90;;;;;;5047562;28;19916;-49
2022/01/18 13:28:39;;;;;;;;;;;7.30;99.90;;;;;;5025606;28;19993;-48
2022/01/18 13:31:21;;;;;;;;;;;7.30;99.90;;;;;;5056134;28;19924;-49
2022/01/18 13:33:48;;;;;;;;;;;7.40;99.90;;;;;;5067723;28;19977;-48
2022/01/18 13:36:14;;;;;;;;;;;7.40;99.90;;;;;;5032101;28;20319;-48
2022/01/18 13:38:40;;;;;;;;;;;7.40;99.90;;;;;;5065772;28;19950;-50
2022/01/18 13:41:06;;;;;;;;;;;7.40;99.90;;;;;;5049439;28;20042;-50
2022/01/18 13:43:32;;;;;;;;;;;7.40;99.90;;;;;;5065866;28;19926;-50
2022/01/18 13:45:58;;;;;;;;;;;7.40;99.90;;;;;;5048580;28;19916;-48
2022/01/18 13:48:33;;;;;;;;;;;7.40;99.90;;;;;;5027788;28;19921;-47
2022/01/18 13:51:09;;;;;;;;;;;7.40;99.90;;;;;;5048109;28;20015;-49
2022/01/18 13:53:35;;;;;;;;;;;7.30;99.90;;;;;;5067110;28;20411;-47
2022/01/18 13:56:03;;;;;;;;;;;7.30;99.90;;;;;;5048515;28;19920;-48
2022/01/18 13:58:30;;;;;;;;;;;7.20;99.90;;;;;;5064452;28;20352;-52
2022/01/18 14:01:17;;;;;;;;;;;7.20;99.90;;;;;;5032355;28;19927;-50
2022/01/18 14:03:43;;;;;;;;;;;7.20;99.90;;;;;;5050172;28;20010;-48
2022/01/18 14:06:11;;;;;;;;;;;7.20;99.90;;;;;;5066610;28;20322;-48
2022/01/18 14:08:49;;;;;;;;;;;7.20;99.90;;;;;;5064869;28;19932;-47
2022/01/18 14:11:19;;;;;;;;;;;7.30;99.90;;;;;;5064944;28;19924;-49
2022/01/18 14:13:45;;;;;;;;;;;7.30;99.90;;;;;;5050535;28;20369;-50
2022/01/18 14:16:18;;;;;;;;;;;7.30;99.90;;;;;;5064278;28;19920;-50
2022/01/18 14:18:53;;;;;;;;;;;7.30;99.90;;;;;;5067093;28;20613;-52
2022/01/18 14:21:23;;;;;;;;;;;7.30;99.90;;;;;;5064892;28;19920;-52
2022/01/18 14:23:48;;;;;;;;;;;7.20;99.90;;;;;;5062666;28;20382;-51
2022/01/18 14:26:18;;;;;;;;;;;7.10;99.90;;;;;;5066332;28;19981;-50
2022/01/18 14:28:44;;;;;;;;;;;7.00;99.90;;;;;;5046133;28;19974;-51
2022/01/18 14:31:10;;;;;;;;;;;6.90;99.90;;;;;;5044972;28;19967;-49
2022/01/18 14:33:38;;;;;;;;;;;6.90;99.90;;;;;;5066152;28;19927;-51
2022/01/18 14:36:13;;;;;;;;;;;6.90;99.90;;;;;;5080037;28;20306;-52
2022/01/18 14:38:39;;;;;;;;;;;6.90;99.90;;;;;;5064779;28;20218;-49
2022/01/18 14:41:16;;;;;;;;;;;6.80;99.90;;;;;;5065222;28;19916;-50
2022/01/18 14:43:42;;;;;;;;;;;6.70;99.90;;;;;;5045905;28;19920;-52
2022/01/18 14:46:22;;;;;;;;;;;6.60;99.90;;;;;;5032773;28;20334;-48
2022/01/18 14:48:49;;;;;;;;;;;6.70;99.90;;;;;;5033767;28;20062;-51
2022/01/18 14:51:14;;;;;;;;;;;6.60;99.90;;;;;;5064941;28;20416;-49
2022/01/18 14:53:40;;;;;;;;;;;6.60;99.90;;;;;;5062943;28;20681;-51
2022/01/18 14:56:06;;;;;;;;;;;6.60;99.90;;;;;;5065082;28;20266;-51
2022/01/18 14:58:32;;;;;;;;;;;6.50;99.90;;;;;;5046802;28;19924;-49
2022/01/18 15:00:59;;;;;;;;;;;6.40;99.90;;;;;;5047371;28;20435;-49
2022/01/18 15:03:25;;;;;;;;;;;6.40;99.90;;;;;;5045046;28;19917;-51
2022/01/18 15:05:51;;;;;;;;;;;6.30;99.90;;;;;;5064040;28;19973;-50
2022/01/18 15:08:19;;;;;;;;;;;6.30;99.90;;;;;;5049011;28;20003;-47
2022/01/18 15:10:45;;;;;;;;;;;6.30;99.90;;;;;;5046354;28;20423;-50
2022/01/18 15:13:11;;;;;;;;;;;6.30;99.90;;;;;;5046711;28;19920;-49
2022/01/18 15:15:36;;;;;;;;;;;6.30;99.90;;;;;;5063022;28;19956;-46
2022/01/18 15:18:03;;;;;;;;;;;6.30;99.90;;;;;;5064989;28;19969;-50
2022/01/18 15:20:29;;;;;;;;;;;6.20;99.90;;;;;;5031254;28;19916;-48
2022/01/18 15:22:55;;;;;;;;;;;6.20;99.90;;;;;;5029949;28;19985;-50
2022/01/18 15:25:21;;;;;;;;;;;6.20;99.90;;;;;;5063552;28;19925;-49
2022/01/18 15:27:47;;;;;;;;;;;6.10;99.90;;;;;;5080195;28;19924;-48
2022/01/18 15:30:14;;;;;;;;;;;6.10;99.90;;;;;;5042709;28;19981;-47
2022/01/18 15:32:40;;;;;;;;;;;6.00;99.90;;;;;;5028787;28;20512;-51
2022/01/18 15:35:06;;;;;;;;;;;6.00;99.90;;;;;;5052122;28;20031;-48
2022/01/18 15:37:32;;;;;;;;;;;5.90;99.90;;;;;;5091785;28;19965;-47
2022/01/18 15:40:01;;;;;;;;;;;5.90;99.90;;;;;;5074544;28;19916;-49
2022/01/18 15:42:27;;;;;;;;;;;5.90;99.90;;;;;;5089951;28;19985;-49
2022/01/18 15:44:52;;;;;;;;;;;5.80;99.90;;;;;;5087296;28;20276;-51
2022/01/18 15:47:18;;;;;;;;;;;5.80;99.90;;;;;;5052602;28;19950;-47
2022/01/18 15:49:44;;;;;;;;;;;5.80;99.90;;;;;;5071923;28;19942;-47
2022/01/18 15:52:10;;;;;;;;;;;5.70;99.90;;;;;;5086324;28;19985;-48
2022/01/18 15:54:35;;;;;;;;;;;5.70;99.90;;;;;;5076579;28;20058;-51
2022/01/18 15:57:07;;;;;;;;;;;5.70;99.90;;;;;;5073064;28;19928;-49
2022/01/18 15:59:42;;;;;;;;;;;5.60;99.90;;;;;;5061530;28;19920;-50
2022/01/18 16:02:08;;;;;;;;;;;5.60;99.90;;;;;;5088535;28;20392;-48
2022/01/18 16:04:34;;;;;;;;;;;5.60;99.90;;;;;;5092243;28;19967;-51
2022/01/18 16:07:00;;;;;;;;;;;5.60;99.90;;;;;;5085332;28;19967;-51